<?xml version="1.0" encoding="UTF-8" standalone="no" ?>
<gpx xmlns="http://www.topografix.com/GPX/1/1" xmlns:xsi="http://www.w3.org/2001/XMLSchema-instance" xsi:schemaLocation="http://www.topografix.com/GPX/1/1 http://www.topografix.com/GPX/1/1/gpx.xsd" version="1.1" creator="VisuGPX - https://www.visugpx.com">
  <metadata>
    <name>voile du 14 novembre 2016</name>
    <desc><![CDATA[Dernière sortie voile sur Caminar]]></desc>
  </metadata>
  <trk>
    <name><![CDATA[ONmove 100 - 14/11/2016]]></name>
    <trkseg>
      <trkpt lat="44.4942" lon="-1.08001">
        <ele>21</ele>
        <time>2016-11-14T14:29:49Z</time>
      </trkpt>
      <trkpt lat="44.49318" lon="-1.08235">
        <ele>20</ele>
        <time>2016-11-14T14:39:26Z</time>
      </trkpt>
      <trkpt lat="44.49236" lon="-1.08492">
        <ele>20</ele>
        <time>2016-11-14T14:41:47Z</time>
      </trkpt>
      <trkpt lat="44.49166" lon="-1.0875">
        <ele>20</ele>
        <time>2016-11-14T14:44:42Z</time>
      </trkpt>
      <trkpt lat="44.49126" lon="-1.09018">
        <ele>20</ele>
        <time>2016-11-14T14:48:53Z</time>
      </trkpt>
      <trkpt lat="44.4906" lon="-1.09283">
        <ele>20</ele>
        <time>2016-11-14T14:51:01Z</time>
      </trkpt>
      <trkpt lat="44.4905" lon="-1.09559">
        <ele>20</ele>
        <time>2016-11-14T14:52:37Z</time>
      </trkpt>
      <trkpt lat="44.4907" lon="-1.09831">
        <ele>20</ele>
        <time>2016-11-14T14:54:46Z</time>
      </trkpt>
      <trkpt lat="44.4909" lon="-1.10113">
        <ele>20</ele>
        <time>2016-11-14T14:56:38Z</time>
      </trkpt>
      <trkpt lat="44.49109" lon="-1.10397">
        <ele>20</ele>
        <time>2016-11-14T14:58:32Z</time>
      </trkpt>
      <trkpt lat="44.49176" lon="-1.10666">
        <ele>20</ele>
        <time>2016-11-14T15:00:52Z</time>
      </trkpt>
      <trkpt lat="44.49283" lon="-1.10905">
        <ele>20</ele>
        <time>2016-11-14T15:02:31Z</time>
      </trkpt>
      <trkpt lat="44.49375" lon="-1.11164">
        <ele>20</ele>
        <time>2016-11-14T15:03:56Z</time>
      </trkpt>
      <trkpt lat="44.49442" lon="-1.11459">
        <ele>20</ele>
        <time>2016-11-14T15:06:16Z</time>
      </trkpt>
      <trkpt lat="44.49503" lon="-1.11752">
        <ele>20</ele>
        <time>2016-11-14T15:07:48Z</time>
      </trkpt>
      <trkpt lat="44.49488" lon="-1.11914">
        <ele>20</ele>
        <time>2016-11-14T15:08:39Z</time>
      </trkpt>
      <trkpt lat="44.49406" lon="-1.12039">
        <ele>20</ele>
        <time>2016-11-14T15:10:01Z</time>
      </trkpt>
      <trkpt lat="44.49254" lon="-1.12265">
        <ele>20</ele>
        <time>2016-11-14T15:11:56Z</time>
      </trkpt>
      <trkpt lat="44.49121" lon="-1.12455">
        <ele>20</ele>
        <time>2016-11-14T15:13:39Z</time>
      </trkpt>
      <trkpt lat="44.4899" lon="-1.12651">
        <ele>20</ele>
        <time>2016-11-14T15:15:06Z</time>
      </trkpt>
      <trkpt lat="44.48862" lon="-1.1284">
        <ele>20</ele>
        <time>2016-11-14T15:16:27Z</time>
      </trkpt>
      <trkpt lat="44.48733" lon="-1.13035">
        <ele>20</ele>
        <time>2016-11-14T15:18:04Z</time>
      </trkpt>
      <trkpt lat="44.48602" lon="-1.13224">
        <ele>20</ele>
        <time>2016-11-14T15:19:44Z</time>
      </trkpt>
      <trkpt lat="44.4847" lon="-1.13419">
        <ele>20</ele>
        <time>2016-11-14T15:21:41Z</time>
      </trkpt>
      <trkpt lat="44.48338" lon="-1.1361">
        <ele>20</ele>
        <time>2016-11-14T15:23:09Z</time>
      </trkpt>
      <trkpt lat="44.48199" lon="-1.138">
        <ele>20</ele>
        <time>2016-11-14T15:24:52Z</time>
      </trkpt>
      <trkpt lat="44.48066" lon="-1.13985">
        <ele>20</ele>
        <time>2016-11-14T15:26:17Z</time>
      </trkpt>
      <trkpt lat="44.47939" lon="-1.1419">
        <ele>20</ele>
        <time>2016-11-14T15:28:01Z</time>
      </trkpt>
      <trkpt lat="44.47817" lon="-1.14396">
        <ele>20</ele>
        <time>2016-11-14T15:29:46Z</time>
      </trkpt>
      <trkpt lat="44.47681" lon="-1.14586">
        <ele>20</ele>
        <time>2016-11-14T15:31:22Z</time>
      </trkpt>
      <trkpt lat="44.47546" lon="-1.14777">
        <ele>20</ele>
        <time>2016-11-14T15:33:01Z</time>
      </trkpt>
      <trkpt lat="44.47398" lon="-1.14951">
        <ele>20</ele>
        <time>2016-11-14T15:34:44Z</time>
      </trkpt>
      <trkpt lat="44.47263" lon="-1.15148">
        <ele>20</ele>
        <time>2016-11-14T15:36:27Z</time>
      </trkpt>
      <trkpt lat="44.47086" lon="-1.15269">
        <ele>20</ele>
        <time>2016-11-14T15:38:31Z</time>
      </trkpt>
      <trkpt lat="44.46995" lon="-1.15162">
        <ele>20</ele>
        <time>2016-11-14T15:39:37Z</time>
      </trkpt>
      <trkpt lat="44.46927" lon="-1.15026">
        <ele>20</ele>
        <time>2016-11-14T15:40:31Z</time>
      </trkpt>
      <trkpt lat="44.46849" lon="-1.14893">
        <ele>20</ele>
        <time>2016-11-14T15:41:26Z</time>
      </trkpt>
      <trkpt lat="44.46783" lon="-1.14758">
        <ele>20</ele>
        <time>2016-11-14T15:42:13Z</time>
      </trkpt>
      <trkpt lat="44.46717" lon="-1.14622">
        <ele>20</ele>
        <time>2016-11-14T15:43:01Z</time>
      </trkpt>
      <trkpt lat="44.46644" lon="-1.14487">
        <ele>20</ele>
        <time>2016-11-14T15:43:51Z</time>
      </trkpt>
      <trkpt lat="44.4658" lon="-1.14347">
        <ele>20</ele>
        <time>2016-11-14T15:44:36Z</time>
      </trkpt>
      <trkpt lat="44.46552" lon="-1.14181">
        <ele>20</ele>
        <time>2016-11-14T15:45:36Z</time>
      </trkpt>
      <trkpt lat="44.4667" lon="-1.14252">
        <ele>20</ele>
        <time>2016-11-14T15:47:01Z</time>
      </trkpt>
      <trkpt lat="44.46791" lon="-1.14299">
        <ele>20</ele>
        <time>2016-11-14T15:48:14Z</time>
      </trkpt>
      <trkpt lat="44.46914" lon="-1.14361">
        <ele>20</ele>
        <time>2016-11-14T15:49:21Z</time>
      </trkpt>
      <trkpt lat="44.47028" lon="-1.14437">
        <ele>20</ele>
        <time>2016-11-14T15:50:24Z</time>
      </trkpt>
      <trkpt lat="44.47141" lon="-1.14516">
        <ele>20</ele>
        <time>2016-11-14T15:51:27Z</time>
      </trkpt>
      <trkpt lat="44.47249" lon="-1.14616">
        <ele>20</ele>
        <time>2016-11-14T15:52:26Z</time>
      </trkpt>
      <trkpt lat="44.47361" lon="-1.14698">
        <ele>20</ele>
        <time>2016-11-14T15:53:29Z</time>
      </trkpt>
      <trkpt lat="44.47479" lon="-1.1478">
        <ele>20</ele>
        <time>2016-11-14T15:54:39Z</time>
      </trkpt>
      <trkpt lat="44.47633" lon="-1.14854">
        <ele>20</ele>
        <time>2016-11-14T15:56:11Z</time>
      </trkpt>
      <trkpt lat="44.47797" lon="-1.14896">
        <ele>20</ele>
        <time>2016-11-14T15:57:34Z</time>
      </trkpt>
      <trkpt lat="44.47974" lon="-1.14943">
        <ele>20</ele>
        <time>2016-11-14T15:59:09Z</time>
      </trkpt>
      <trkpt lat="44.48113" lon="-1.14783">
        <ele>20</ele>
        <time>2016-11-14T16:01:36Z</time>
      </trkpt>
      <trkpt lat="44.48145" lon="-1.14565">
        <ele>20</ele>
        <time>2016-11-14T16:02:48Z</time>
      </trkpt>
      <trkpt lat="44.48204" lon="-1.14352">
        <ele>20</ele>
        <time>2016-11-14T16:04:04Z</time>
      </trkpt>
      <trkpt lat="44.48249" lon="-1.14139">
        <ele>20</ele>
        <time>2016-11-14T16:05:12Z</time>
      </trkpt>
      <trkpt lat="44.48293" lon="-1.13925">
        <ele>20</ele>
        <time>2016-11-14T16:06:21Z</time>
      </trkpt>
      <trkpt lat="44.4828" lon="-1.13745">
        <ele>20</ele>
        <time>2016-11-14T16:07:19Z</time>
      </trkpt>
      <trkpt lat="44.4825" lon="-1.13571">
        <ele>20</ele>
        <time>2016-11-14T16:08:18Z</time>
      </trkpt>
      <trkpt lat="44.4824" lon="-1.13392">
        <ele>20</ele>
        <time>2016-11-14T16:09:13Z</time>
      </trkpt>
      <trkpt lat="44.48209" lon="-1.13211">
        <ele>20</ele>
        <time>2016-11-14T16:10:19Z</time>
      </trkpt>
      <trkpt lat="44.48209" lon="-1.13032">
        <ele>20</ele>
        <time>2016-11-14T16:11:18Z</time>
      </trkpt>
      <trkpt lat="44.48177" lon="-1.12853">
        <ele>20</ele>
        <time>2016-11-14T16:12:31Z</time>
      </trkpt>
      <trkpt lat="44.48179" lon="-1.12679">
        <ele>20</ele>
        <time>2016-11-14T16:13:32Z</time>
      </trkpt>
      <trkpt lat="44.48176" lon="-1.12495">
        <ele>20</ele>
        <time>2016-11-14T16:14:36Z</time>
      </trkpt>
      <trkpt lat="44.4817" lon="-1.12217">
        <ele>20</ele>
        <time>2016-11-14T16:16:11Z</time>
      </trkpt>
      <trkpt lat="44.48186" lon="-1.11936">
        <ele>20</ele>
        <time>2016-11-14T16:17:52Z</time>
      </trkpt>
      <trkpt lat="44.48415" lon="-1.11995">
        <ele>20</ele>
        <time>2016-11-14T16:20:16Z</time>
      </trkpt>
      <trkpt lat="44.48532" lon="-1.12026">
        <ele>20</ele>
        <time>2016-11-14T16:21:19Z</time>
      </trkpt>
      <trkpt lat="44.48637" lon="-1.12097">
        <ele>20</ele>
        <time>2016-11-14T16:22:18Z</time>
      </trkpt>
      <trkpt lat="44.48768" lon="-1.12133">
        <ele>20</ele>
        <time>2016-11-14T16:23:16Z</time>
      </trkpt>
      <trkpt lat="44.48903" lon="-1.1214">
        <ele>20</ele>
        <time>2016-11-14T16:24:22Z</time>
      </trkpt>
      <trkpt lat="44.4904" lon="-1.1214">
        <ele>20</ele>
        <time>2016-11-14T16:25:29Z</time>
      </trkpt>
      <trkpt lat="44.49176" lon="-1.12155">
        <ele>20</ele>
        <time>2016-11-14T16:26:34Z</time>
      </trkpt>
      <trkpt lat="44.49332" lon="-1.12141">
        <ele>20</ele>
        <time>2016-11-14T16:27:47Z</time>
      </trkpt>
      <trkpt lat="44.49487" lon="-1.12139">
        <ele>20</ele>
        <time>2016-11-14T16:28:56Z</time>
      </trkpt>
      <trkpt lat="44.49636" lon="-1.12128">
        <ele>20</ele>
        <time>2016-11-14T16:30:04Z</time>
      </trkpt>
      <trkpt lat="44.49785" lon="-1.12092">
        <ele>20</ele>
        <time>2016-11-14T16:31:26Z</time>
      </trkpt>
      <trkpt lat="44.49753" lon="-1.11848">
        <ele>20</ele>
        <time>2016-11-14T16:32:54Z</time>
      </trkpt>
      <trkpt lat="44.49725" lon="-1.11601">
        <ele>20</ele>
        <time>2016-11-14T16:34:06Z</time>
      </trkpt>
      <trkpt lat="44.4969" lon="-1.11348">
        <ele>20</ele>
        <time>2016-11-14T16:35:16Z</time>
      </trkpt>
      <trkpt lat="44.49606" lon="-1.11128">
        <ele>20</ele>
        <time>2016-11-14T16:36:57Z</time>
      </trkpt>
      <trkpt lat="44.49541" lon="-1.1084">
        <ele>20</ele>
        <time>2016-11-14T16:38:47Z</time>
      </trkpt>
      <trkpt lat="44.4946" lon="-1.10561">
        <ele>20</ele>
        <time>2016-11-14T16:40:26Z</time>
      </trkpt>
      <trkpt lat="44.49331" lon="-1.10318">
        <ele>20</ele>
        <time>2016-11-14T16:42:16Z</time>
      </trkpt>
      <trkpt lat="44.49219" lon="-1.10067">
        <ele>20</ele>
        <time>2016-11-14T16:44:02Z</time>
      </trkpt>
      <trkpt lat="44.49172" lon="-1.09773">
        <ele>20</ele>
        <time>2016-11-14T16:45:36Z</time>
      </trkpt>
      <trkpt lat="44.49117" lon="-1.09491">
        <ele>20</ele>
        <time>2016-11-14T16:47:08Z</time>
      </trkpt>
      <trkpt lat="44.49018" lon="-1.0923">
        <ele>20</ele>
        <time>2016-11-14T16:49:30Z</time>
      </trkpt>
      <trkpt lat="44.48926" lon="-1.08958">
        <ele>20</ele>
        <time>2016-11-14T16:51:52Z</time>
      </trkpt>
      <trkpt lat="44.4887" lon="-1.08737">
        <ele>20</ele>
        <time>2016-11-14T16:53:39Z</time>
      </trkpt>
      <trkpt lat="44.4883" lon="-1.08506">
        <ele>20</ele>
        <time>2016-11-14T16:54:59Z</time>
      </trkpt>
      <trkpt lat="44.48994" lon="-1.08534">
        <ele>20</ele>
        <time>2016-11-14T16:57:36Z</time>
      </trkpt>
      <trkpt lat="44.49154" lon="-1.08459">
        <ele>20</ele>
        <time>2016-11-14T17:01:46Z</time>
      </trkpt>
      <trkpt lat="44.49138" lon="-1.08239">
        <ele>20</ele>
        <time>2016-11-14T17:03:16Z</time>
      </trkpt>
      <trkpt lat="44.49078" lon="-1.0804">
        <ele>20</ele>
        <time>2016-11-14T17:05:14Z</time>
      </trkpt>
      <trkpt lat="44.49254" lon="-1.08159">
        <ele>20</ele>
        <time>2016-11-14T17:08:32Z</time>
      </trkpt>
      <trkpt lat="44.49263" lon="-1.07888">
        <ele>20</ele>
        <time>2016-11-14T17:12:38Z</time>
      </trkpt>
      <trkpt lat="44.49413" lon="-1.07993">
        <ele>21</ele>
        <time>2016-11-14T17:31:33Z</time>
      </trkpt>
    </trkseg>
  </trk>
</gpx>